createdAt,value
2016-11-22T00:00:13.612Z,18.30
2016-11-22T00:01:13.248Z,18.30
2016-11-22T00:02:11.749Z,18.30
2016-11-22T00:03:11.792Z,18.30
2016-11-22T00:04:12.114Z,18.30
2016-11-22T00:05:11.219Z,18.30
2016-11-22T00:06:11.773Z,18.30
2016-11-22T00:07:11.983Z,18.30
2016-11-22T00:08:14.844Z,18.30
2016-11-22T00:09:11.808Z,18.30
2016-11-22T00:10:12.865Z,18.30
2016-11-22T00:11:11.722Z,18.30
2016-11-22T00:12:11.822Z,18.30
2016-11-22T00:13:12.671Z,18.30
2016-11-22T00:14:11.574Z,18.30
2016-11-22T00:15:11.496Z,18.30
2016-11-22T00:16:13.212Z,18.30
2016-11-22T00:17:11.804Z,18.30
2016-11-22T00:18:11.955Z,18.30
2016-11-22T00:19:11.962Z,18.30
2016-11-22T00:20:12.655Z,18.30
2016-11-22T00:21:12.352Z,18.30
2016-11-22T00:22:11.515Z,18.30
2016-11-22T00:23:11.495Z,18.30
2016-11-22T00:24:11.543Z,18.30
2016-11-22T00:25:13.275Z,18.30
2016-11-22T00:26:11.846Z,18.30
2016-11-22T00:27:11.769Z,18.30
2016-11-22T00:28:12.066Z,18.30
2016-11-22T00:29:11.679Z,18.30
2016-11-22T00:30:13.246Z,18.30
2016-11-22T00:31:12.493Z,18.30
2016-11-22T00:32:08.626Z,18.30
2016-11-22T00:33:11.146Z,18.30
2016-11-22T00:34:11.211Z,18.30
2016-11-22T00:35:11.219Z,18.30
2016-11-22T00:36:09.671Z,18.30
2016-11-22T00:37:09.686Z,18.30
2016-11-22T00:38:11.931Z,18.30
2016-11-22T00:39:11.989Z,18.30
2016-11-22T00:40:13.770Z,18.30
2016-11-22T00:41:12.302Z,18.30
2016-11-22T00:42:12.064Z,18.30
2016-11-22T00:43:11.889Z,18.30
2016-11-22T00:44:12.441Z,18.30
2016-11-22T00:45:12.968Z,18.30
2016-11-22T00:46:10.257Z,18.30
2016-11-22T00:47:12.242Z,18.30
2016-11-22T00:48:11.399Z,18.30
2016-11-22T00:49:12.099Z,18.30
2016-11-22T00:50:11.312Z,18.30
2016-11-22T00:51:12.180Z,18.30
2016-11-22T00:52:11.476Z,18.30
2016-11-22T00:53:11.991Z,18.30
2016-11-22T00:54:12.622Z,18.30
2016-11-22T00:55:12.149Z,18.30
2016-11-22T00:56:11.643Z,18.30
2016-11-22T00:57:12.148Z,18.30
2016-11-22T00:58:11.886Z,18.30
2016-11-22T00:59:11.751Z,18.30
2016-11-22T01:00:12.136Z,18.30
2016-11-22T01:01:10.734Z,18.30
2016-11-22T01:02:12.998Z,18.30
2016-11-22T01:03:12.753Z,18.30
2016-11-22T01:04:11.785Z,18.30
2016-11-22T01:05:13.202Z,18.30
2016-11-22T01:06:12.101Z,18.30
2016-11-22T01:07:13.160Z,18.30
2016-11-22T01:08:14.254Z,18.30
2016-11-22T01:09:11.837Z,18.30
2016-11-22T01:10:11.742Z,18.30
2016-11-22T01:11:12.171Z,18.30
2016-11-22T01:12:12.301Z,18.30
2016-11-22T01:13:13.043Z,18.30
2016-11-22T01:14:11.086Z,18.30
2016-11-22T01:15:12.470Z,18.30
2016-11-22T01:16:09.944Z,18.30
2016-11-22T01:17:13.925Z,18.30
2016-11-22T01:18:11.915Z,18.30
2016-11-22T01:19:12.843Z,18.30
2016-11-22T01:20:12.037Z,18.30
2016-11-22T01:21:12.697Z,18.30
2016-11-22T01:22:12.431Z,18.30
2016-11-22T01:23:12.535Z,18.30
2016-11-22T01:24:12.379Z,18.30
2016-11-22T01:25:12.495Z,18.30
2016-11-22T01:26:11.387Z,18.30
2016-11-22T01:27:12.451Z,18.30
2016-11-22T01:28:11.626Z,18.30
2016-11-22T01:29:11.781Z,18.30
2016-11-22T01:30:13.645Z,18.30
2016-11-22T01:31:11.974Z,18.30
2016-11-22T01:32:13.666Z,18.30
2016-11-22T01:33:12.116Z,18.30
2016-11-22T01:34:11.303Z,18.30
2016-11-22T01:35:09.858Z,18.30
2016-11-22T01:36:13.153Z,18.30
2016-11-22T01:37:12.576Z,18.30
2016-11-22T01:38:12.146Z,18.30
2016-11-22T01:39:11.962Z,18.30
2016-11-22T01:40:12.945Z,18.30
2016-11-22T01:41:13.604Z,18.30
2016-11-22T01:42:12.073Z,18.30
2016-11-22T01:43:11.793Z,18.30
2016-11-22T01:44:13.362Z,18.30
2016-11-22T01:45:12.442Z,18.30
2016-11-22T01:46:12.939Z,18.30
2016-11-22T01:47:12.535Z,18.30
2016-11-22T01:48:12.174Z,18.30
2016-11-22T01:49:12.085Z,18.30
2016-11-22T01:50:11.761Z,18.30
2016-11-22T01:51:12.302Z,18.30
2016-11-22T01:52:12.766Z,18.30
2016-11-22T01:53:10.301Z,18.30
2016-11-22T01:54:11.576Z,18.30
2016-11-22T01:55:11.572Z,18.30
2016-11-22T01:56:16.219Z,18.30
2016-11-22T01:57:12.158Z,18.30
2016-11-22T01:58:11.898Z,18.30
2016-11-22T01:59:11.997Z,18.30
2016-11-22T02:00:13.006Z,18.30
2016-11-22T02:01:12.845Z,18.30
2016-11-22T02:02:11.819Z,18.30
2016-11-22T02:03:10.811Z,18.30
2016-11-22T02:04:12.205Z,18.30
2016-11-22T02:05:12.624Z,18.30
2016-11-22T02:06:12.074Z,18.30
2016-11-22T02:07:12.159Z,18.30
2016-11-22T02:08:12.215Z,18.30
2016-11-22T02:09:11.435Z,18.30
2016-11-22T02:10:12.251Z,18.30
2016-11-22T02:11:12.661Z,18.30
2016-11-22T02:12:13.407Z,18.30
2016-11-22T02:13:11.704Z,18.30
2016-11-22T02:14:11.623Z,18.30
2016-11-22T02:15:12.177Z,18.30
2016-11-22T02:16:12.556Z,18.30
2016-11-22T02:17:12.436Z,18.30
2016-11-22T02:18:12.034Z,18.30
2016-11-22T02:19:12.176Z,18.30
2016-11-22T02:20:12.682Z,18.30
2016-11-22T02:21:12.814Z,18.30
2016-11-22T02:22:13.234Z,18.30
2016-11-22T02:23:11.814Z,18.30
2016-11-22T02:24:13.381Z,18.30
2016-11-22T02:25:11.846Z,18.30
2016-11-22T02:26:11.874Z,18.30
2016-11-22T02:27:12.583Z,18.30
2016-11-22T02:28:12.480Z,18.30
2016-11-22T02:29:11.500Z,18.30
2016-11-22T02:30:11.612Z,18.30
2016-11-22T02:31:11.675Z,18.30
2016-11-22T02:32:12.304Z,18.30
2016-11-22T02:33:12.013Z,18.30
2016-11-22T02:34:11.996Z,18.30
2016-11-22T02:35:11.145Z,18.30
2016-11-22T02:36:11.859Z,18.30
2016-11-22T02:37:12.069Z,18.30
2016-11-22T02:38:11.384Z,18.30
2016-11-22T02:39:13.969Z,18.30
2016-11-22T02:40:12.569Z,18.30
2016-11-22T02:41:12.404Z,18.30
2016-11-22T02:42:09.871Z,18.30
2016-11-22T02:43:12.936Z,18.30
2016-11-22T02:44:12.331Z,18.30
2016-11-22T02:45:12.110Z,18.30
2016-11-22T02:46:11.289Z,18.30
2016-11-22T02:47:12.403Z,18.30
2016-11-22T02:48:11.468Z,18.30
2016-11-22T02:49:12.007Z,18.30
2016-11-22T02:50:11.878Z,18.30
2016-11-22T02:51:11.830Z,18.30
2016-11-22T02:52:13.442Z,18.30
2016-11-22T02:53:12.281Z,18.30
2016-11-22T02:54:13.108Z,18.30
2016-11-22T02:55:11.920Z,18.30
2016-11-22T02:56:11.787Z,18.30
2016-11-22T02:57:10.054Z,18.30
2016-11-22T02:58:12.688Z,18.30
2016-11-22T02:59:11.700Z,18.30
2016-11-22T03:00:11.801Z,18.30
2016-11-22T03:01:13.525Z,18.30
2016-11-22T03:02:11.690Z,18.30
2016-11-22T03:03:13.203Z,18.30
2016-11-22T03:04:11.775Z,18.30
2016-11-22T03:05:13.267Z,18.30
2016-11-22T03:06:11.314Z,18.30
2016-11-22T03:07:13.027Z,18.30
2016-11-22T03:08:11.277Z,18.30
2016-11-22T03:09:12.138Z,18.30
2016-11-22T03:10:11.243Z,18.30
2016-11-22T03:11:11.370Z,18.30
2016-11-22T03:12:12.885Z,18.30
2016-11-22T03:13:12.058Z,18.30
2016-11-22T03:14:12.511Z,18.30
2016-11-22T03:15:11.482Z,18.30
2016-11-22T03:16:11.459Z,18.30
2016-11-22T03:17:12.441Z,18.30
2016-11-22T03:18:12.126Z,18.30
2016-11-22T03:19:12.160Z,18.30
2016-11-22T03:20:12.125Z,18.30
2016-11-22T03:21:11.579Z,18.30
2016-11-22T03:22:11.703Z,18.30
2016-11-22T03:23:11.590Z,18.30
2016-11-22T03:24:12.103Z,18.30
2016-11-22T03:25:11.825Z,18.30
2016-11-22T03:26:12.625Z,18.30
2016-11-22T03:27:12.345Z,18.30
2016-11-22T03:28:13.884Z,18.30
2016-11-22T03:29:12.049Z,18.30
2016-11-22T03:30:11.981Z,18.30
2016-11-22T03:31:12.107Z,18.30
2016-11-22T03:32:12.202Z,18.30
2016-11-22T03:33:11.967Z,18.30
2016-11-22T03:34:09.812Z,18.30
2016-11-22T03:35:11.429Z,18.30
2016-11-22T03:36:14.216Z,18.30
2016-11-22T03:37:13.041Z,18.30
2016-11-22T03:38:11.321Z,18.30
2016-11-22T03:39:11.281Z,18.30
2016-11-22T03:40:12.567Z,18.30
2016-11-22T03:41:12.259Z,18.30
2016-11-22T03:42:11.342Z,18.30
2016-11-22T03:43:11.472Z,18.30
2016-11-22T03:44:11.425Z,18.30
2016-11-22T03:45:09.688Z,18.30
2016-11-22T03:46:12.320Z,18.30
2016-11-22T03:47:11.342Z,18.30
2016-11-22T03:48:11.331Z,18.30
2016-11-22T03:49:12.007Z,18.30
2016-11-22T03:50:12.228Z,18.30
2016-11-22T03:51:11.557Z,18.30
2016-11-22T03:52:12.172Z,18.30
2016-11-22T03:53:11.284Z,18.30
2016-11-22T03:54:12.282Z,18.30
2016-11-22T03:55:11.384Z,18.30
2016-11-22T03:56:11.579Z,18.30
2016-11-22T03:57:11.517Z,18.30
2016-11-22T03:58:12.331Z,18.30
2016-11-22T03:59:11.369Z,18.30
2016-11-22T04:00:11.333Z,18.30
2016-11-22T04:01:12.460Z,18.30
2016-11-22T04:02:12.152Z,18.30
2016-11-22T04:03:11.900Z,18.30
2016-11-22T04:04:11.871Z,18.30
2016-11-22T04:05:11.938Z,18.30
2016-11-22T04:06:12.406Z,18.30
2016-11-22T04:07:11.970Z,18.30
2016-11-22T04:08:11.923Z,18.30
2016-11-22T04:09:12.352Z,18.30
2016-11-22T04:10:13.217Z,18.30
2016-11-22T04:11:11.869Z,18.30
2016-11-22T04:12:12.775Z,18.30
2016-11-22T04:13:11.796Z,18.30
2016-11-22T04:14:12.672Z,18.30
2016-11-22T04:15:11.884Z,18.30
2016-11-22T04:16:11.939Z,18.30
2016-11-22T04:17:10.440Z,18.30
2016-11-22T04:18:11.925Z,18.30
2016-11-22T04:19:12.000Z,18.30
2016-11-22T04:20:11.835Z,18.30
2016-11-22T04:21:12.449Z,18.30
2016-11-22T04:22:12.364Z,18.30
2016-11-22T04:23:11.419Z,18.30
2016-11-22T04:24:13.109Z,18.30
2016-11-22T04:25:11.500Z,18.30
2016-11-22T04:26:11.562Z,18.30
2016-11-22T04:27:12.172Z,18.30
2016-11-22T04:28:11.311Z,18.30
2016-11-22T04:29:11.792Z,18.30
2016-11-22T04:30:11.770Z,18.30
2016-11-22T04:31:12.230Z,18.30
2016-11-22T04:32:11.152Z,18.30
2016-11-22T04:33:11.299Z,18.30
2016-11-22T04:34:11.338Z,18.30
2016-11-22T04:35:11.448Z,18.30
2016-11-22T04:36:11.620Z,18.30
2016-11-22T04:37:14.240Z,18.30
2016-11-22T04:38:12.295Z,18.30
2016-11-22T04:39:11.483Z,18.30
2016-11-22T04:40:11.650Z,18.30
2016-11-22T04:41:12.590Z,18.30
2016-11-22T04:42:11.870Z,18.30
2016-11-22T04:43:11.948Z,18.30
2016-11-22T04:44:12.491Z,18.30
2016-11-22T04:45:12.503Z,18.30
2016-11-22T04:46:12.964Z,18.30
2016-11-22T04:47:12.494Z,18.30
2016-11-22T04:48:12.601Z,18.30
2016-11-22T04:49:13.049Z,18.30
2016-11-22T04:50:11.144Z,18.30
2016-11-22T04:51:11.233Z,18.30
2016-11-22T04:52:11.459Z,18.30
2016-11-22T04:53:12.530Z,18.30
2016-11-22T04:54:13.732Z,18.30
2016-11-22T04:55:14.032Z,18.30
2016-11-22T04:56:12.529Z,18.30
2016-11-22T04:57:12.084Z,18.30
2016-11-22T04:58:11.872Z,18.30
2016-11-22T04:59:11.950Z,18.30
2016-11-22T05:00:11.871Z,18.30
2016-11-22T05:01:13.358Z,18.30
2016-11-22T05:02:09.938Z,18.30
2016-11-22T05:03:11.454Z,18.30
2016-11-22T05:04:13.219Z,18.30
2016-11-22T05:05:11.954Z,18.30
2016-11-22T05:06:12.829Z,18.30
2016-11-22T05:07:11.721Z,18.30
2016-11-22T05:08:12.155Z,18.30
2016-11-22T05:09:11.270Z,18.30
2016-11-22T05:10:11.842Z,18.30
2016-11-22T05:11:12.327Z,18.30
2016-11-22T05:12:09.973Z,18.30
2016-11-22T05:13:12.526Z,18.30
2016-11-22T05:14:11.570Z,18.30
2016-11-22T05:15:13.426Z,18.30
2016-11-22T05:16:12.032Z,18.30
2016-11-22T05:17:12.026Z,18.30
2016-11-22T05:18:11.417Z,18.30
2016-11-22T05:19:12.204Z,18.30
2016-11-22T05:20:12.757Z,18.30
2016-11-22T05:21:11.771Z,18.30
2016-11-22T05:22:11.745Z,18.30
2016-11-22T05:23:12.574Z,18.30
2016-11-22T05:24:11.441Z,18.30
2016-11-22T05:25:17.205Z,18.30
2016-11-22T05:26:13.320Z,18.30
2016-11-22T05:27:11.447Z,18.30
2016-11-22T05:28:12.149Z,18.30
2016-11-22T05:29:12.957Z,18.30
2016-11-22T05:30:12.674Z,18.30
2016-11-22T05:31:12.189Z,18.30
2016-11-22T05:32:12.625Z,18.30
2016-11-22T05:33:11.758Z,18.30
2016-11-22T05:34:12.369Z,18.30
2016-11-22T05:35:11.865Z,18.30
2016-11-22T05:36:11.766Z,18.30
2016-11-22T05:37:13.380Z,18.30
2016-11-22T05:38:12.030Z,18.30
2016-11-22T05:39:11.826Z,18.30
2016-11-22T05:40:12.686Z,18.30
2016-11-22T05:41:11.784Z,18.30
2016-11-22T05:42:11.751Z,18.30
2016-11-22T05:43:12.861Z,18.30
2016-11-22T05:44:11.886Z,18.30
2016-11-22T05:45:13.202Z,18.30
2016-11-22T05:46:11.875Z,18.30
2016-11-22T05:47:12.650Z,18.30
2016-11-22T05:48:11.624Z,18.30
2016-11-22T05:49:13.031Z,18.30
2016-11-22T05:50:11.628Z,18.30
2016-11-22T05:51:11.646Z,18.30
2016-11-22T05:52:12.358Z,18.30
2016-11-22T05:53:11.628Z,18.30
2016-11-22T05:54:11.825Z,18.30
2016-11-22T05:55:11.841Z,18.30
2016-11-22T05:56:12.544Z,18.30
2016-11-22T05:57:09.920Z,18.30
2016-11-22T05:58:11.494Z,18.30
2016-11-22T05:59:12.222Z,18.30
2016-11-22T06:00:11.367Z,18.30
2016-11-22T06:01:13.114Z,18.30
2016-11-22T06:02:11.978Z,18.30
2016-11-22T06:03:12.019Z,18.30
2016-11-22T06:04:12.726Z,18.30
2016-11-22T06:05:11.693Z,18.30
2016-11-22T06:06:11.672Z,18.30
2016-11-22T06:07:12.262Z,18.30
2016-11-22T06:08:12.609Z,18.30
2016-11-22T06:09:13.077Z,18.30
2016-11-22T06:10:11.598Z,18.30
2016-11-22T06:11:11.811Z,18.30
2016-11-22T06:12:11.398Z,18.30
2016-11-22T06:13:11.551Z,18.30
2016-11-22T06:14:11.682Z,18.30
2016-11-22T06:15:11.558Z,18.30
2016-11-22T06:16:13.030Z,18.30
2016-11-22T06:17:11.293Z,18.30
2016-11-22T06:18:11.999Z,18.30
2016-11-22T06:19:11.706Z,18.30
2016-11-22T06:20:13.376Z,18.30
2016-11-22T06:21:09.812Z,18.30
2016-11-22T06:22:11.376Z,18.30
2016-11-22T06:23:13.235Z,18.30
2016-11-22T06:24:11.409Z,18.30
2016-11-22T06:25:11.374Z,18.30
2016-11-22T06:26:12.389Z,18.30
2016-11-22T06:27:11.548Z,18.30
2016-11-22T06:28:11.679Z,18.30
2016-11-22T06:29:11.727Z,18.30
2016-11-22T06:30:12.639Z,18.30
2016-11-22T06:31:12.168Z,18.30
2016-11-22T06:32:11.294Z,18.30
2016-11-22T06:33:11.356Z,18.30
2016-11-22T06:34:11.418Z,18.30
2016-11-22T06:35:11.452Z,18.30
2016-11-22T06:36:11.468Z,18.30
2016-11-22T06:37:11.622Z,18.30
2016-11-22T06:38:12.538Z,18.30
2016-11-22T06:39:13.341Z,18.30
2016-11-22T06:40:11.729Z,18.30
2016-11-22T06:41:12.422Z,18.30
2016-11-22T06:42:11.851Z,18.30
2016-11-22T06:43:12.592Z,18.30
2016-11-22T06:44:11.728Z,18.30
2016-11-22T06:45:11.698Z,18.30
2016-11-22T06:46:12.200Z,18.30
2016-11-22T06:47:11.208Z,18.30
2016-11-22T06:48:11.788Z,18.40
2016-11-22T06:49:12.412Z,18.40
2016-11-22T06:50:11.503Z,18.40
2016-11-22T06:51:11.473Z,18.40
2016-11-22T06:52:11.596Z,18.40
2016-11-22T06:53:11.986Z,18.40
2016-11-22T06:54:13.523Z,18.40
2016-11-22T06:55:12.068Z,18.40
2016-11-22T06:56:12.876Z,18.40
2016-11-22T06:57:12.674Z,18.40
2016-11-22T06:58:11.763Z,18.40
2016-11-22T06:59:11.280Z,18.40
2016-11-22T07:00:12.015Z,18.40
2016-11-22T07:01:10.413Z,18.40
2016-11-22T07:02:12.489Z,18.40
2016-11-22T07:03:12.162Z,18.40
2016-11-22T07:04:11.813Z,18.40
2016-11-22T07:05:12.363Z,18.40
2016-11-22T07:06:13.577Z,18.40
2016-11-22T07:07:12.253Z,18.40
2016-11-22T07:08:11.881Z,18.40
2016-11-22T07:09:12.430Z,18.40
2016-11-22T07:10:11.476Z,18.40
2016-11-22T07:11:11.518Z,18.40
2016-11-22T07:12:09.852Z,18.40
2016-11-22T07:13:11.303Z,18.40
2016-11-22T07:14:11.300Z,18.40
2016-11-22T07:15:12.725Z,18.40
2016-11-22T07:16:12.394Z,18.40
2016-11-22T07:17:13.193Z,18.40
2016-11-22T07:18:09.987Z,18.40
2016-11-22T07:19:09.640Z,18.40
2016-11-22T07:20:11.740Z,18.40
2016-11-22T07:21:11.775Z,18.40
2016-11-22T07:22:11.751Z,18.40
2016-11-22T07:23:12.549Z,18.50
2016-11-22T07:24:11.529Z,18.50
2016-11-22T07:25:11.615Z,18.50
2016-11-22T07:26:11.881Z,18.50
2016-11-22T07:27:12.440Z,18.50
2016-11-22T07:28:12.198Z,18.50
2016-11-22T07:29:11.399Z,18.50
2016-11-22T07:30:11.377Z,18.50
2016-11-22T07:31:11.385Z,18.50
2016-11-22T07:32:12.193Z,18.50
2016-11-22T07:33:11.224Z,18.50
2016-11-22T07:34:11.909Z,18.50
2016-11-22T07:35:11.062Z,18.50
2016-11-22T07:36:12.223Z,18.40
2016-11-22T07:37:11.992Z,18.40
2016-11-22T07:38:11.891Z,18.40
2016-11-22T07:39:11.997Z,18.40
2016-11-22T07:40:12.070Z,18.40
2016-11-22T07:41:09.812Z,18.40
2016-11-22T07:42:08.361Z,18.30
2016-11-22T07:43:12.320Z,18.30
2016-11-22T07:44:13.888Z,18.30
2016-11-22T07:45:12.529Z,18.30
2016-11-22T07:46:11.538Z,17.80
2016-11-22T07:47:11.491Z,17.20
2016-11-22T07:48:11.573Z,16.60
2016-11-22T07:49:12.112Z,16.40
2016-11-22T07:50:11.258Z,16.20
2016-11-22T07:51:11.861Z,16.30
2016-11-22T07:52:11.927Z,16.50
2016-11-22T07:53:12.556Z,16.60
2016-11-22T07:54:11.589Z,16.80
2016-11-22T07:55:13.080Z,17.10
2016-11-22T07:56:12.097Z,17.20
2016-11-22T07:57:11.630Z,17.40
2016-11-22T07:58:11.530Z,17.50
2016-11-22T07:59:11.610Z,17.60
2016-11-22T08:00:12.320Z,17.70
2016-11-22T08:01:13.056Z,17.80
2016-11-22T08:02:11.102Z,17.90
2016-11-22T08:03:09.779Z,18.00
2016-11-22T08:04:11.949Z,18.00
2016-11-22T08:05:12.530Z,18.10
2016-11-22T08:06:11.703Z,18.10
2016-11-22T08:07:10.552Z,18.20
2016-11-22T08:08:11.175Z,18.20
2016-11-22T08:09:11.369Z,18.20
2016-11-22T08:10:13.177Z,18.20
2016-11-22T08:11:11.807Z,18.20
2016-11-22T08:12:12.209Z,18.30
2016-11-22T08:13:11.346Z,18.30
2016-11-22T08:14:11.391Z,18.20
2016-11-22T08:15:12.018Z,18.20
2016-11-22T08:16:13.388Z,18.20
2016-11-22T08:17:12.051Z,18.20
2016-11-22T08:18:11.148Z,18.20
2016-11-22T08:19:10.081Z,18.30
2016-11-22T08:20:09.837Z,18.20
2016-11-22T08:21:12.111Z,18.20
2016-11-22T08:22:11.254Z,18.20
2016-11-22T08:23:11.976Z,18.20
2016-11-22T08:24:11.687Z,18.30
2016-11-22T08:25:11.779Z,18.30
2016-11-22T08:26:12.217Z,18.30
2016-11-22T08:27:11.619Z,18.30
2016-11-22T08:28:11.656Z,18.30
2016-11-22T08:29:12.424Z,18.30
2016-11-22T08:30:11.405Z,18.30
2016-11-22T08:31:12.007Z,18.30
2016-11-22T08:32:12.340Z,18.30
2016-11-22T08:33:11.955Z,18.30
2016-11-22T08:34:10.421Z,18.30
2016-11-22T08:35:11.868Z,18.30
2016-11-22T08:36:12.290Z,18.30
2016-11-22T08:37:12.206Z,18.30
2016-11-22T08:38:11.933Z,18.30
2016-11-22T08:39:10.957Z,18.30
2016-11-22T08:40:12.237Z,18.40
2016-11-22T08:41:11.866Z,18.30
2016-11-22T08:42:11.712Z,18.30
2016-11-22T08:43:11.672Z,18.30
2016-11-22T08:44:10.226Z,18.40
2016-11-22T08:45:12.255Z,18.30
2016-11-22T08:46:11.868Z,18.30
2016-11-22T08:47:11.760Z,18.30
2016-11-22T08:48:11.819Z,18.30
2016-11-22T08:49:12.572Z,18.40
2016-11-22T08:50:11.464Z,18.40
2016-11-22T08:51:11.516Z,18.40
2016-11-22T08:52:12.195Z,18.40
2016-11-22T08:53:14.327Z,18.40
2016-11-22T08:54:11.518Z,18.40
2016-11-22T08:55:10.548Z,18.40
2016-11-22T08:56:11.175Z,18.40
2016-11-22T08:57:11.788Z,18.40
2016-11-22T08:58:12.274Z,18.40
2016-11-22T08:59:11.352Z,18.40
2016-11-22T09:00:12.050Z,18.40
2016-11-22T09:01:11.596Z,18.40
2016-11-22T09:02:09.749Z,18.40
2016-11-22T09:03:11.946Z,18.40
2016-11-22T09:04:12.508Z,18.40
2016-11-22T09:05:11.663Z,18.40
2016-11-22T09:06:12.766Z,18.40
2016-11-22T09:07:12.480Z,18.40
2016-11-22T09:08:11.484Z,18.40
2016-11-22T09:09:12.301Z,18.40
2016-11-22T09:10:09.737Z,18.50
2016-11-22T09:11:14.107Z,18.40
2016-11-22T09:12:09.353Z,18.50
2016-11-22T09:13:12.449Z,18.40
2016-11-22T09:14:11.997Z,18.40
2016-11-22T09:15:12.588Z,18.50
2016-11-22T09:16:11.671Z,18.50
2016-11-22T09:17:11.896Z,18.50
2016-11-22T09:18:12.396Z,18.60
2016-11-22T09:19:12.404Z,18.60
2016-11-22T09:20:11.612Z,18.60
2016-11-22T09:21:11.797Z,18.60
2016-11-22T09:22:11.565Z,18.60
2016-11-22T09:23:11.554Z,18.60
2016-11-22T09:24:12.111Z,18.60
2016-11-22T09:25:11.659Z,18.60
2016-11-22T09:26:11.203Z,18.60
2016-11-22T09:27:13.121Z,18.60
2016-11-22T09:28:11.303Z,18.60
2016-11-22T09:29:11.853Z,18.60
2016-11-22T09:30:11.844Z,18.60
2016-11-22T09:31:12.433Z,18.60
2016-11-22T09:32:12.123Z,18.60
2016-11-22T09:33:12.998Z,18.70
2016-11-22T09:34:09.393Z,18.60
2016-11-22T09:35:11.048Z,18.60
2016-11-22T09:36:11.156Z,18.60
2016-11-22T09:37:12.107Z,18.70
2016-11-22T09:38:12.755Z,18.70
2016-11-22T09:39:11.895Z,18.60
2016-11-22T09:40:12.476Z,18.70
2016-11-22T09:41:11.973Z,18.70
2016-11-22T09:42:11.715Z,18.70
2016-11-22T09:43:12.203Z,18.70
2016-11-22T09:44:11.165Z,18.70
2016-11-22T09:45:11.448Z,18.70
2016-11-22T09:46:09.685Z,18.70
2016-11-22T09:47:11.197Z,18.70
2016-11-22T09:48:12.756Z,18.70
2016-11-22T09:49:11.689Z,18.70
2016-11-22T09:50:12.880Z,18.70
2016-11-22T09:51:12.369Z,18.70
2016-11-22T09:52:11.644Z,18.70
2016-11-22T09:53:12.079Z,18.70
2016-11-22T09:54:11.209Z,18.70
2016-11-22T09:55:11.945Z,18.70
2016-11-22T09:56:11.165Z,18.70
2016-11-22T09:57:11.202Z,18.70
2016-11-22T09:58:13.791Z,18.70
2016-11-22T09:59:11.907Z,18.70
2016-11-22T10:00:12.000Z,18.70
2016-11-22T10:01:11.067Z,18.70
2016-11-22T10:02:11.685Z,18.70
2016-11-22T10:03:11.620Z,18.70
2016-11-22T10:04:12.209Z,18.80
2016-11-22T10:05:09.641Z,18.70
2016-11-22T10:06:11.737Z,18.70
2016-11-22T10:07:12.341Z,18.70
2016-11-22T10:08:11.697Z,18.70
2016-11-22T10:09:12.121Z,18.70
2016-11-22T10:10:11.287Z,18.70
2016-11-22T10:11:10.124Z,18.70
2016-11-22T10:12:11.957Z,18.70
2016-11-22T10:13:09.797Z,18.70
2016-11-22T10:14:09.885Z,18.70
2016-11-22T10:15:12.278Z,18.70
2016-11-22T10:16:11.330Z,18.70
2016-11-22T10:17:11.505Z,18.70
2016-11-22T10:18:09.943Z,18.70
2016-11-22T10:19:11.956Z,18.70
2016-11-22T10:20:11.897Z,18.70
2016-11-22T10:21:11.875Z,18.70
2016-11-22T10:22:12.572Z,18.80
2016-11-22T10:23:12.098Z,18.70
2016-11-22T10:24:11.704Z,18.80
2016-11-22T10:25:12.195Z,18.80
2016-11-22T10:26:13.896Z,18.70
2016-11-22T10:27:12.603Z,18.70
2016-11-22T10:28:11.527Z,18.70
2016-11-22T10:29:11.543Z,18.80
2016-11-22T10:30:13.017Z,18.80
2016-11-22T10:31:10.409Z,18.80
2016-11-22T10:32:12.449Z,18.80
2016-11-22T10:33:12.100Z,18.80
2016-11-22T10:34:11.216Z,18.80
2016-11-22T10:35:11.265Z,18.80
2016-11-22T10:36:11.345Z,18.80
2016-11-22T10:37:09.726Z,18.70
2016-11-22T10:38:11.778Z,18.70
2016-11-22T10:39:13.556Z,18.70
2016-11-22T10:40:11.478Z,18.70
2016-11-22T10:41:13.766Z,18.70
2016-11-22T10:42:13.577Z,18.60
2016-11-22T10:43:12.829Z,18.60
2016-11-22T10:44:13.256Z,18.60
2016-11-22T10:45:11.382Z,18.60
2016-11-22T10:46:11.606Z,18.60
2016-11-22T10:47:11.561Z,18.60
2016-11-22T10:48:11.571Z,18.60
2016-11-22T10:49:12.361Z,18.60
2016-11-22T10:50:13.225Z,18.60
2016-11-22T10:51:11.940Z,18.60
2016-11-22T10:52:13.618Z,18.60
2016-11-22T10:53:11.738Z,18.60
2016-11-22T10:54:12.437Z,18.60
2016-11-22T10:55:11.527Z,18.60
2016-11-22T10:56:11.464Z,18.60
2016-11-22T10:57:11.971Z,18.60
2016-11-22T10:58:09.728Z,18.60
2016-11-22T10:59:12.386Z,18.60
2016-11-22T11:00:11.348Z,18.60
2016-11-22T11:01:11.826Z,18.60
2016-11-22T11:02:11.709Z,18.60
2016-11-22T11:03:12.394Z,18.60
2016-11-22T11:04:12.257Z,18.70
2016-11-22T11:05:11.967Z,18.60
2016-11-22T11:06:10.580Z,18.70
2016-11-22T11:07:13.704Z,18.60
2016-11-22T11:08:12.298Z,18.60
2016-11-22T11:09:11.514Z,18.60
2016-11-22T11:10:13.094Z,18.60
2016-11-22T11:11:09.879Z,18.60
2016-11-22T11:12:11.237Z,18.60
2016-11-22T11:13:11.230Z,18.60
2016-11-22T11:14:11.301Z,18.60
2016-11-22T11:15:11.758Z,18.70
2016-11-22T11:16:10.482Z,18.70
2016-11-22T11:17:13.376Z,18.70
2016-11-22T11:18:11.845Z,18.70
2016-11-22T11:19:12.806Z,18.70
2016-11-22T11:20:11.842Z,18.60
2016-11-22T11:21:12.482Z,18.60
2016-11-22T11:22:11.415Z,18.60
2016-11-22T11:23:11.537Z,18.70
2016-11-22T11:24:12.044Z,18.70
2016-11-22T11:25:11.091Z,18.70
2016-11-22T11:26:13.671Z,18.70
2016-11-22T11:27:11.756Z,18.70
2016-11-22T11:28:12.527Z,18.70
2016-11-22T11:29:13.061Z,18.70
2016-11-22T11:30:13.402Z,18.70
2016-11-22T11:31:11.463Z,18.70
2016-11-22T11:32:12.009Z,18.60
2016-11-22T11:33:09.658Z,18.70
2016-11-22T11:34:11.647Z,18.70
2016-11-22T11:35:09.963Z,18.70
2016-11-22T11:36:09.941Z,18.70
2016-11-22T11:37:11.575Z,18.60
2016-11-22T11:38:12.405Z,18.60
2016-11-22T11:39:10.079Z,18.70
2016-11-22T11:40:13.048Z,18.60
2016-11-22T11:41:11.882Z,18.60
2016-11-22T11:42:13.483Z,18.60
2016-11-22T11:43:11.487Z,18.60
2016-11-22T11:44:11.927Z,18.70
2016-11-22T11:45:11.367Z,18.70
2016-11-22T11:46:11.959Z,18.60
2016-11-22T11:47:10.496Z,18.70
2016-11-22T11:48:11.842Z,18.60
2016-11-22T11:49:12.666Z,18.70
2016-11-22T11:50:11.682Z,18.60
2016-11-22T11:51:11.538Z,18.60
2016-11-22T11:52:11.552Z,18.60
2016-11-22T11:53:11.949Z,18.70
2016-11-22T11:54:12.647Z,18.60
2016-11-22T11:55:11.551Z,18.70
2016-11-22T11:56:12.348Z,18.70
2016-11-22T11:57:12.945Z,18.60
2016-11-22T11:58:12.457Z,18.60
2016-11-22T11:59:11.552Z,18.60
2016-11-22T12:00:12.071Z,18.60
2016-11-22T12:01:10.966Z,18.60
2016-11-22T12:02:12.465Z,18.60
2016-11-22T12:03:11.583Z,18.60
2016-11-22T12:04:12.119Z,18.60
2016-11-22T12:05:11.013Z,18.60
2016-11-22T12:06:11.015Z,18.60
2016-11-22T12:07:12.585Z,18.60
2016-11-22T12:08:11.653Z,18.60
2016-11-22T12:09:11.651Z,18.60
2016-11-22T12:10:12.275Z,18.60
2016-11-22T12:11:13.081Z,18.60
2016-11-22T12:12:11.089Z,18.60
2016-11-22T12:13:11.540Z,18.60
2016-11-22T12:14:11.469Z,18.60
2016-11-22T12:15:12.492Z,18.60
2016-11-22T12:16:13.915Z,18.60
2016-11-22T12:17:13.954Z,18.60
2016-11-22T12:18:12.288Z,18.60
2016-11-22T12:19:09.059Z,18.60
2016-11-22T12:20:11.323Z,18.60
2016-11-22T12:21:11.818Z,18.60
2016-11-22T12:22:12.751Z,18.70
2016-11-22T12:23:11.838Z,18.70
2016-11-22T12:24:10.353Z,18.70
2016-11-22T12:25:11.838Z,18.60
2016-11-22T12:26:12.700Z,18.70
2016-11-22T12:27:11.693Z,18.60
2016-11-22T12:28:12.409Z,18.60
2016-11-22T12:29:11.830Z,18.70
2016-11-22T12:30:11.671Z,18.60
2016-11-22T12:31:12.222Z,18.60
2016-11-22T12:32:11.278Z,18.60
2016-11-22T12:33:11.424Z,18.60
2016-11-22T12:34:11.485Z,18.60
2016-11-22T12:35:13.124Z,18.60
2016-11-22T12:36:11.195Z,18.60
2016-11-22T12:37:12.209Z,18.70
2016-11-22T12:38:11.687Z,18.70
2016-11-22T12:39:11.766Z,18.60
2016-11-22T12:40:12.499Z,18.70
2016-11-22T12:41:13.929Z,18.70
2016-11-22T12:42:12.424Z,18.70
2016-11-22T12:43:13.189Z,18.70
2016-11-22T12:44:11.565Z,18.60
2016-11-22T12:45:11.550Z,18.60
2016-11-22T12:46:11.926Z,18.70
2016-11-22T12:47:11.959Z,18.60
2016-11-22T12:48:11.816Z,18.70
2016-11-22T12:49:11.668Z,18.60
2016-11-22T12:50:11.548Z,18.60
2016-11-22T12:51:13.114Z,18.60
2016-11-22T12:52:11.713Z,18.70